sensor_id;sensor_type;location;lat;lon;timestamp;P1;durP1;ratioP1;P2;durP2;ratioP2
76593;SDS011;65482;50.240;14.302;2023-12-04T00:01:14;26.05;;;10.77;;
76593;SDS011;65482;50.240;14.302;2023-12-04T00:03:44;27.52;;;10.68;;
76593;SDS011;65482;50.240;14.302;2023-12-04T00:06:11;26.60;;;10.60;;
76593;SDS011;65482;50.240;14.302;2023-12-04T00:08:37;27.95;;;11.05;;
76593;SDS011;65482;50.240;14.302;2023-12-04T00:11:03;23.65;;;10.32;;
76593;SDS011;65482;50.240;14.302;2023-12-04T00:13:30;25.17;;;10.02;;
76593;SDS011;65482;50.240;14.302;2023-12-04T00:15:55;22.23;;;9.80;;
76593;SDS011;65482;50.240;14.302;2023-12-04T00:18:21;20.67;;;9.70;;
76593;SDS011;65482;50.240;14.302;2023-12-04T00:20:47;28.20;;;10.15;;
76593;SDS011;65482;50.240;14.302;2023-12-04T00:23:13;22.15;;;9.77;;
76593;SDS011;65482;50.240;14.302;2023-12-04T00:25:38;25.33;;;10.10;;
76593;SDS011;65482;50.240;14.302;2023-12-04T00:28:04;24.02;;;9.90;;
76593;SDS011;65482;50.240;14.302;2023-12-04T00:30:29;22.02;;;9.98;;
76593;SDS011;65482;50.240;14.302;2023-12-04T00:32:55;21.55;;;9.88;;
76593;SDS011;65482;50.240;14.302;2023-12-04T00:35:20;25.73;;;10.30;;
76593;SDS011;65482;50.240;14.302;2023-12-04T00:37:46;22.20;;;9.45;;
76593;SDS011;65482;50.240;14.302;2023-12-04T00:40:12;21.52;;;9.68;;
76593;SDS011;65482;50.240;14.302;2023-12-04T00:42:37;19.73;;;8.80;;
76593;SDS011;65482;50.240;14.302;2023-12-04T00:45:03;27.48;;;10.23;;
76593;SDS011;65482;50.240;14.302;2023-12-04T00:47:29;22.48;;;9.38;;
76593;SDS011;65482;50.240;14.302;2023-12-04T00:49:55;19.58;;;8.85;;
76593;SDS011;65482;50.240;14.302;2023-12-04T00:52:20;23.38;;;8.57;;
76593;SDS011;65482;50.240;14.302;2023-12-04T00:54:46;27.08;;;9.93;;
76593;SDS011;65482;50.240;14.302;2023-12-04T00:57:11;20.15;;;9.07;;
76593;SDS011;65482;50.240;14.302;2023-12-04T00:59:37;24.23;;;10.25;;
76593;SDS011;65482;50.240;14.302;2023-12-04T01:02:02;21.33;;;9.65;;
76593;SDS011;65482;50.240;14.302;2023-12-04T01:04:29;25.00;;;10.55;;
76593;SDS011;65482;50.240;14.302;2023-12-04T01:06:56;23.67;;;10.00;;
76593;SDS011;65482;50.240;14.302;2023-12-04T01:09:21;23.55;;;9.13;;
76593;SDS011;65482;50.240;14.302;2023-12-04T01:11:51;29.45;;;10.38;;
76593;SDS011;65482;50.240;14.302;2023-12-04T01:14:17;28.70;;;11.45;;
76593;SDS011;65482;50.240;14.302;2023-12-04T01:16:43;27.70;;;10.93;;
76593;SDS011;65482;50.240;14.302;2023-12-04T01:19:08;24.35;;;9.77;;
76593;SDS011;65482;50.240;14.302;2023-12-04T01:21:34;23.92;;;10.68;;
76593;SDS011;65482;50.240;14.302;2023-12-04T01:23:59;25.45;;;10.77;;
76593;SDS011;65482;50.240;14.302;2023-12-04T01:26:25;23.65;;;9.93;;
76593;SDS011;65482;50.240;14.302;2023-12-04T01:28:50;22.88;;;10.32;;
76593;SDS011;65482;50.240;14.302;2023-12-04T01:31:16;24.45;;;9.73;;
76593;SDS011;65482;50.240;14.302;2023-12-04T01:33:42;25.55;;;10.43;;
76593;SDS011;65482;50.240;14.302;2023-12-04T01:36:07;24.38;;;9.65;;
76593;SDS011;65482;50.240;14.302;2023-12-04T01:38:33;22.73;;;9.70;;
76593;SDS011;65482;50.240;14.302;2023-12-04T01:40:59;19.92;;;9.10;;
76593;SDS011;65482;50.240;14.302;2023-12-04T01:43:24;31.67;;;12.23;;
76593;SDS011;65482;50.240;14.302;2023-12-04T01:45:50;36.83;;;12.25;;
76593;SDS011;65482;50.240;14.302;2023-12-04T01:48:17;52.53;;;15.50;;
76593;SDS011;65482;50.240;14.302;2023-12-04T01:50:43;54.15;;;14.27;;
76593;SDS011;65482;50.240;14.302;2023-12-04T01:53:09;52.28;;;13.52;;
76593;SDS011;65482;50.240;14.302;2023-12-04T01:55:35;42.78;;;12.63;;
76593;SDS011;65482;50.240;14.302;2023-12-04T01:58:02;34.05;;;11.48;;
76593;SDS011;65482;50.240;14.302;2023-12-04T02:00:29;28.20;;;10.52;;
76593;SDS011;65482;50.240;14.302;2023-12-04T02:02:55;25.00;;;10.50;;
76593;SDS011;65482;50.240;14.302;2023-12-04T02:05:21;24.35;;;10.57;;
76593;SDS011;65482;50.240;14.302;2023-12-04T02:07:47;21.00;;;9.27;;
76593;SDS011;65482;50.240;14.302;2023-12-04T02:10:13;32.60;;;10.13;;
76593;SDS011;65482;50.240;14.302;2023-12-04T02:12:39;25.05;;;10.75;;
76593;SDS011;65482;50.240;14.302;2023-12-04T02:15:05;22.65;;;9.27;;
76593;SDS011;65482;50.240;14.302;2023-12-04T02:17:31;22.83;;;9.35;;
76593;SDS011;65482;50.240;14.302;2023-12-04T02:19:58;24.45;;;9.38;;
76593;SDS011;65482;50.240;14.302;2023-12-04T02:22:23;24.00;;;9.82;;
76593;SDS011;65482;50.240;14.302;2023-12-04T02:24:49;24.05;;;9.60;;
76593;SDS011;65482;50.240;14.302;2023-12-04T02:27:20;23.98;;;9.25;;
76593;SDS011;65482;50.240;14.302;2023-12-04T02:29:59;27.45;;;9.80;;
76593;SDS011;65482;50.240;14.302;2023-12-04T02:32:29;21.77;;;9.63;;
76593;SDS011;65482;50.240;14.302;2023-12-04T02:34:56;29.98;;;10.88;;
76593;SDS011;65482;50.240;14.302;2023-12-04T02:37:24;23.42;;;9.02;;
76593;SDS011;65482;50.240;14.302;2023-12-04T02:39:52;20.55;;;9.32;;
76593;SDS011;65482;50.240;14.302;2023-12-04T02:42:20;23.27;;;9.18;;
76593;SDS011;65482;50.240;14.302;2023-12-04T02:44:46;27.10;;;10.40;;
76593;SDS011;65482;50.240;14.302;2023-12-04T02:47:12;24.15;;;10.00;;
76593;SDS011;65482;50.240;14.302;2023-12-04T02:49:38;20.80;;;8.90;;
76593;SDS011;65482;50.240;14.302;2023-12-04T02:52:03;22.95;;;8.80;;
76593;SDS011;65482;50.240;14.302;2023-12-04T02:54:29;16.90;;;8.23;;
76593;SDS011;65482;50.240;14.302;2023-12-04T02:56:54;23.73;;;9.20;;
76593;SDS011;65482;50.240;14.302;2023-12-04T02:59:20;23.00;;;9.60;;
76593;SDS011;65482;50.240;14.302;2023-12-04T03:01:45;22.50;;;8.95;;
76593;SDS011;65482;50.240;14.302;2023-12-04T03:04:11;24.83;;;10.02;;
76593;SDS011;65482;50.240;14.302;2023-12-04T03:06:37;20.92;;;9.43;;
76593;SDS011;65482;50.240;14.302;2023-12-04T03:09:03;18.88;;;8.43;;
76593;SDS011;65482;50.240;14.302;2023-12-04T03:11:29;25.02;;;8.73;;
76593;SDS011;65482;50.240;14.302;2023-12-04T03:13:55;24.13;;;9.95;;
76593;SDS011;65482;50.240;14.302;2023-12-04T03:16:20;21.25;;;9.10;;
76593;SDS011;65482;50.240;14.302;2023-12-04T03:18:46;21.35;;;8.10;;
76593;SDS011;65482;50.240;14.302;2023-12-04T03:21:12;26.10;;;9.18;;
76593;SDS011;65482;50.240;14.302;2023-12-04T03:23:38;22.35;;;9.50;;
76593;SDS011;65482;50.240;14.302;2023-12-04T03:26:03;20.95;;;8.82;;
76593;SDS011;65482;50.240;14.302;2023-12-04T03:28:29;22.27;;;9.43;;
76593;SDS011;65482;50.240;14.302;2023-12-04T03:30:54;20.90;;;8.43;;
76593;SDS011;65482;50.240;14.302;2023-12-04T03:33:20;20.10;;;8.27;;
76593;SDS011;65482;50.240;14.302;2023-12-04T03:35:46;19.98;;;7.82;;
76593;SDS011;65482;50.240;14.302;2023-12-04T03:38:12;17.70;;;7.40;;
76593;SDS011;65482;50.240;14.302;2023-12-04T03:40:37;23.25;;;8.30;;
76593;SDS011;65482;50.240;14.302;2023-12-04T03:43:03;20.40;;;8.05;;
76593;SDS011;65482;50.240;14.302;2023-12-04T03:45:28;20.85;;;7.90;;
76593;SDS011;65482;50.240;14.302;2023-12-04T03:47:54;17.70;;;7.57;;
76593;SDS011;65482;50.240;14.302;2023-12-04T03:50:20;19.55;;;7.55;;
76593;SDS011;65482;50.240;14.302;2023-12-04T03:52:45;22.60;;;7.82;;
76593;SDS011;65482;50.240;14.302;2023-12-04T03:55:11;22.35;;;8.70;;
76593;SDS011;65482;50.240;14.302;2023-12-04T03:57:37;20.58;;;8.85;;
76593;SDS011;65482;50.240;14.302;2023-12-04T04:00:02;25.70;;;8.88;;
76593;SDS011;65482;50.240;14.302;2023-12-04T04:02:29;19.98;;;8.95;;
76593;SDS011;65482;50.240;14.302;2023-12-04T04:04:54;23.40;;;7.97;;
76593;SDS011;65482;50.240;14.302;2023-12-04T04:07:20;20.73;;;7.95;;
76593;SDS011;65482;50.240;14.302;2023-12-04T04:09:46;21.98;;;8.27;;
76593;SDS011;65482;50.240;14.302;2023-12-04T04:12:11;22.55;;;8.38;;
76593;SDS011;65482;50.240;14.302;2023-12-04T04:14:37;28.02;;;11.32;;
76593;SDS011;65482;50.240;14.302;2023-12-04T04:17:03;28.15;;;10.70;;
76593;SDS011;65482;50.240;14.302;2023-12-04T04:19:29;30.38;;;10.90;;
76593;SDS011;65482;50.240;14.302;2023-12-04T04:21:55;28.08;;;9.73;;
76593;SDS011;65482;50.240;14.302;2023-12-04T04:24:20;24.15;;;9.52;;
76593;SDS011;65482;50.240;14.302;2023-12-04T04:26:46;27.38;;;9.70;;
76593;SDS011;65482;50.240;14.302;2023-12-04T04:29:11;26.40;;;9.48;;
76593;SDS011;65482;50.240;14.302;2023-12-04T04:31:37;23.98;;;8.93;;
76593;SDS011;65482;50.240;14.302;2023-12-04T04:34:02;25.17;;;10.40;;
76593;SDS011;65482;50.240;14.302;2023-12-04T04:36:28;28.63;;;11.45;;
76593;SDS011;65482;50.240;14.302;2023-12-04T04:38:54;34.28;;;11.60;;
76593;SDS011;65482;50.240;14.302;2023-12-04T04:41:20;37.30;;;13.65;;
76593;SDS011;65482;50.240;14.302;2023-12-04T04:43:45;28.15;;;11.50;;
76593;SDS011;65482;50.240;14.302;2023-12-04T04:46:11;23.92;;;10.75;;
76593;SDS011;65482;50.240;14.302;2023-12-04T04:48:36;24.67;;;9.98;;
76593;SDS011;65482;50.240;14.302;2023-12-04T04:51:02;20.42;;;9.70;;
76593;SDS011;65482;50.240;14.302;2023-12-04T04:53:27;18.75;;;8.57;;
76593;SDS011;65482;50.240;14.302;2023-12-04T04:55:54;22.55;;;9.10;;
76593;SDS011;65482;50.240;14.302;2023-12-04T04:58:19;32.25;;;12.20;;
76593;SDS011;65482;50.240;14.302;2023-12-04T05:00:45;40.05;;;13.73;;
76593;SDS011;65482;50.240;14.302;2023-12-04T05:03:12;45.72;;;14.25;;
76593;SDS011;65482;50.240;14.302;2023-12-04T05:05:37;35.30;;;11.43;;
76593;SDS011;65482;50.240;14.302;2023-12-04T05:08:03;24.88;;;10.50;;
76593;SDS011;65482;50.240;14.302;2023-12-04T05:10:28;25.77;;;9.52;;
76593;SDS011;65482;50.240;14.302;2023-12-04T05:12:54;28.05;;;10.45;;
76593;SDS011;65482;50.240;14.302;2023-12-04T05:15:20;28.90;;;10.20;;
76593;SDS011;65482;50.240;14.302;2023-12-04T05:17:45;24.80;;;10.27;;
76593;SDS011;65482;50.240;14.302;2023-12-04T05:20:11;23.65;;;9.65;;
76593;SDS011;65482;50.240;14.302;2023-12-04T05:22:36;34.45;;;11.55;;
76593;SDS011;65482;50.240;14.302;2023-12-04T05:25:02;41.65;;;11.95;;
76593;SDS011;65482;50.240;14.302;2023-12-04T05:27:27;38.13;;;12.52;;
76593;SDS011;65482;50.240;14.302;2023-12-04T05:29:53;34.45;;;11.23;;
76593;SDS011;65482;50.240;14.302;2023-12-04T05:32:18;31.08;;;10.73;;
76593;SDS011;65482;50.240;14.302;2023-12-04T05:34:44;26.42;;;9.82;;
76593;SDS011;65482;50.240;14.302;2023-12-04T05:37:10;24.20;;;9.20;;
76593;SDS011;65482;50.240;14.302;2023-12-04T05:39:36;25.50;;;10.45;;
76593;SDS011;65482;50.240;14.302;2023-12-04T05:42:02;23.23;;;10.27;;
76593;SDS011;65482;50.240;14.302;2023-12-04T05:44:28;24.30;;;9.63;;
76593;SDS011;65482;50.240;14.302;2023-12-04T05:46:53;22.98;;;10.65;;
76593;SDS011;65482;50.240;14.302;2023-12-04T05:49:19;27.67;;;10.38;;
76593;SDS011;65482;50.240;14.302;2023-12-04T05:51:45;23.17;;;9.88;;
76593;SDS011;65482;50.240;14.302;2023-12-04T05:54:11;35.13;;;11.25;;
76593;SDS011;65482;50.240;14.302;2023-12-04T05:56:36;27.25;;;10.18;;
76593;SDS011;65482;50.240;14.302;2023-12-04T05:59:03;25.67;;;9.68;;
76593;SDS011;65482;50.240;14.302;2023-12-04T06:01:29;22.98;;;10.30;;
76593;SDS011;65482;50.240;14.302;2023-12-04T06:03:56;28.90;;;9.88;;
76593;SDS011;65482;50.240;14.302;2023-12-04T06:06:22;26.85;;;11.75;;
76593;SDS011;65482;50.240;14.302;2023-12-04T06:08:48;24.95;;;10.65;;
76593;SDS011;65482;50.240;14.302;2023-12-04T06:11:17;28.15;;;10.43;;
76593;SDS011;65482;50.240;14.302;2023-12-04T06:13:44;25.77;;;11.40;;
76593;SDS011;65482;50.240;14.302;2023-12-04T06:16:13;28.92;;;11.77;;
76593;SDS011;65482;50.240;14.302;2023-12-04T06:18:39;31.08;;;11.25;;
76593;SDS011;65482;50.240;14.302;2023-12-04T06:21:04;30.55;;;11.85;;
76593;SDS011;65482;50.240;14.302;2023-12-04T06:23:31;35.70;;;12.27;;
76593;SDS011;65482;50.240;14.302;2023-12-04T06:25:56;25.08;;;9.32;;
76593;SDS011;65482;50.240;14.302;2023-12-04T06:28:22;24.88;;;10.25;;
76593;SDS011;65482;50.240;14.302;2023-12-04T06:30:48;36.22;;;13.55;;
76593;SDS011;65482;50.240;14.302;2023-12-04T06:33:14;39.90;;;16.42;;
76593;SDS011;65482;50.240;14.302;2023-12-04T06:35:40;39.80;;;16.42;;
76593;SDS011;65482;50.240;14.302;2023-12-04T06:38:06;29.80;;;12.45;;
76593;SDS011;65482;50.240;14.302;2023-12-04T06:40:33;25.42;;;10.93;;
76593;SDS011;65482;50.240;14.302;2023-12-04T06:43:00;25.48;;;10.30;;
76593;SDS011;65482;50.240;14.302;2023-12-04T06:45:26;30.40;;;10.98;;
76593;SDS011;65482;50.240;14.302;2023-12-04T06:47:52;24.50;;;9.98;;
76593;SDS011;65482;50.240;14.302;2023-12-04T06:50:22;25.67;;;10.63;;
76593;SDS011;65482;50.240;14.302;2023-12-04T06:52:51;29.10;;;11.95;;
76593;SDS011;65482;50.240;14.302;2023-12-04T06:55:17;25.23;;;11.38;;
76593;SDS011;65482;50.240;14.302;2023-12-04T06:57:43;27.73;;;11.55;;
76593;SDS011;65482;50.240;14.302;2023-12-04T07:00:10;28.10;;;10.90;;
76593;SDS011;65482;50.240;14.302;2023-12-04T07:02:40;34.35;;;11.38;;
76593;SDS011;65482;50.240;14.302;2023-12-04T07:05:05;30.98;;;11.55;;
76593;SDS011;65482;50.240;14.302;2023-12-04T07:07:31;25.25;;;10.18;;
76593;SDS011;65482;50.240;14.302;2023-12-04T07:09:57;31.17;;;12.07;;
76593;SDS011;65482;50.240;14.302;2023-12-04T07:12:23;29.95;;;11.13;;
76593;SDS011;65482;50.240;14.302;2023-12-04T07:14:48;35.45;;;14.15;;
76593;SDS011;65482;50.240;14.302;2023-12-04T07:17:14;35.95;;;14.65;;
76593;SDS011;65482;50.240;14.302;2023-12-04T07:19:40;34.47;;;12.23;;
76593;SDS011;65482;50.240;14.302;2023-12-04T07:22:07;26.85;;;11.13;;
76593;SDS011;65482;50.240;14.302;2023-12-04T07:24:32;31.33;;;12.38;;
76593;SDS011;65482;50.240;14.302;2023-12-04T07:26:58;30.85;;;13.15;;
76593;SDS011;65482;50.240;14.302;2023-12-04T07:29:24;33.60;;;13.68;;
76593;SDS011;65482;50.240;14.302;2023-12-04T07:31:51;28.05;;;12.27;;
76593;SDS011;65482;50.240;14.302;2023-12-04T07:34:16;33.13;;;13.88;;
76593;SDS011;65482;50.240;14.302;2023-12-04T07:36:42;35.55;;;13.05;;
76593;SDS011;65482;50.240;14.302;2023-12-04T07:39:09;34.70;;;13.25;;
76593;SDS011;65482;50.240;14.302;2023-12-04T07:41:36;44.33;;;14.43;;
76593;SDS011;65482;50.240;14.302;2023-12-04T07:44:02;48.90;;;16.92;;
76593;SDS011;65482;50.240;14.302;2023-12-04T07:46:29;58.00;;;19.63;;
76593;SDS011;65482;50.240;14.302;2023-12-04T07:48:55;50.13;;;19.30;;
76593;SDS011;65482;50.240;14.302;2023-12-04T07:51:21;48.85;;;19.33;;
76593;SDS011;65482;50.240;14.302;2023-12-04T07:53:47;45.17;;;17.83;;
76593;SDS011;65482;50.240;14.302;2023-12-04T07:56:16;41.78;;;17.00;;
76593;SDS011;65482;50.240;14.302;2023-12-04T07:58:41;45.15;;;18.27;;
76593;SDS011;65482;50.240;14.302;2023-12-04T08:01:07;48.78;;;16.77;;
76593;SDS011;65482;50.240;14.302;2023-12-04T08:03:33;40.40;;;16.75;;
76593;SDS011;65482;50.240;14.302;2023-12-04T08:06:00;40.40;;;16.00;;
76593;SDS011;65482;50.240;14.302;2023-12-04T08:08:25;49.88;;;16.17;;
76593;SDS011;65482;50.240;14.302;2023-12-04T08:10:51;45.28;;;17.52;;
76593;SDS011;65482;50.240;14.302;2023-12-04T08:13:16;45.10;;;17.38;;
76593;SDS011;65482;50.240;14.302;2023-12-04T08:15:43;47.33;;;16.83;;
76593;SDS011;65482;50.240;14.302;2023-12-04T08:18:09;38.28;;;17.13;;
76593;SDS011;65482;50.240;14.302;2023-12-04T08:20:35;48.90;;;17.70;;
76593;SDS011;65482;50.240;14.302;2023-12-04T08:23:00;46.00;;;17.45;;
76593;SDS011;65482;50.240;14.302;2023-12-04T08:25:26;47.38;;;18.10;;
76593;SDS011;65482;50.240;14.302;2023-12-04T08:27:51;50.03;;;18.30;;
76593;SDS011;65482;50.240;14.302;2023-12-04T08:30:17;45.20;;;18.40;;
76593;SDS011;65482;50.240;14.302;2023-12-04T08:32:43;51.38;;;19.55;;
76593;SDS011;65482;50.240;14.302;2023-12-04T08:35:09;49.50;;;18.65;;
76593;SDS011;65482;50.240;14.302;2023-12-04T08:37:34;55.47;;;20.13;;
76593;SDS011;65482;50.240;14.302;2023-12-04T08:40:00;48.92;;;17.77;;
76593;SDS011;65482;50.240;14.302;2023-12-04T08:42:28;43.65;;;18.67;;
76593;SDS011;65482;50.240;14.302;2023-12-04T08:44:54;45.50;;;17.88;;
76593;SDS011;65482;50.240;14.302;2023-12-04T08:47:19;45.85;;;17.45;;
76593;SDS011;65482;50.240;14.302;2023-12-04T08:49:47;47.72;;;18.52;;
76593;SDS011;65482;50.240;14.302;2023-12-04T08:52:13;52.85;;;20.20;;
76593;SDS011;65482;50.240;14.302;2023-12-04T08:54:40;53.35;;;20.65;;
76593;SDS011;65482;50.240;14.302;2023-12-04T08:57:07;62.53;;;21.65;;
76593;SDS011;65482;50.240;14.302;2023-12-04T08:59:34;56.63;;;20.50;;
76593;SDS011;65482;50.240;14.302;2023-12-04T09:02:00;53.80;;;19.17;;
76593;SDS011;65482;50.240;14.302;2023-12-04T09:53:39;50.78;;;20.42;;
76593;SDS011;65482;50.240;14.302;2023-12-04T09:56:10;55.17;;;21.02;;
76593;SDS011;65482;50.240;14.302;2023-12-04T09:58:36;58.35;;;22.08;;
76593;SDS011;65482;50.240;14.302;2023-12-04T10:01:06;57.33;;;22.90;;
76593;SDS011;65482;50.240;14.302;2023-12-04T10:03:33;55.00;;;20.38;;
76593;SDS011;65482;50.240;14.302;2023-12-04T10:06:00;37.15;;;14.98;;
76593;SDS011;65482;50.240;14.302;2023-12-04T10:08:26;42.50;;;16.95;;
76593;SDS011;65482;50.240;14.302;2023-12-04T10:10:51;33.88;;;14.18;;
76593;SDS011;65482;50.240;14.302;2023-12-04T10:13:17;35.53;;;15.43;;
76593;SDS011;65482;50.240;14.302;2023-12-04T10:15:46;38.85;;;16.60;;
76593;SDS011;65482;50.240;14.302;2023-12-04T10:18:23;36.65;;;14.48;;
76593;SDS011;65482;50.240;14.302;2023-12-04T10:20:54;32.80;;;12.18;;
76593;SDS011;65482;50.240;14.302;2023-12-04T10:23:21;35.15;;;14.07;;
76593;SDS011;65482;50.240;14.302;2023-12-04T10:25:48;34.65;;;13.25;;
76593;SDS011;65482;50.240;14.302;2023-12-04T10:28:17;32.42;;;12.43;;
76593;SDS011;65482;50.240;14.302;2023-12-04T10:30:44;35.83;;;13.77;;
76593;SDS011;65482;50.240;14.302;2023-12-04T10:33:10;37.72;;;14.05;;
76593;SDS011;65482;50.240;14.302;2023-12-04T10:35:37;34.88;;;14.55;;
76593;SDS011;65482;50.240;14.302;2023-12-04T10:38:04;34.97;;;14.10;;
76593;SDS011;65482;50.240;14.302;2023-12-04T10:40:35;37.00;;;15.18;;
76593;SDS011;65482;50.240;14.302;2023-12-04T10:43:20;35.72;;;14.32;;
76593;SDS011;65482;50.240;14.302;2023-12-04T10:45:48;48.45;;;17.77;;
76593;SDS011;65482;50.240;14.302;2023-12-04T10:48:15;53.00;;;19.52;;
76593;SDS011;65482;50.240;14.302;2023-12-04T10:50:46;57.60;;;20.00;;
76593;SDS011;65482;50.240;14.302;2023-12-04T10:53:12;49.72;;;17.73;;
76593;SDS011;65482;50.240;14.302;2023-12-04T10:55:39;52.53;;;19.60;;
76593;SDS011;65482;50.240;14.302;2023-12-04T10:58:07;51.45;;;19.00;;
76593;SDS011;65482;50.240;14.302;2023-12-04T11:00:35;54.08;;;20.10;;
76593;SDS011;65482;50.240;14.302;2023-12-04T11:03:09;60.53;;;21.27;;
76593;SDS011;65482;50.240;14.302;2023-12-04T11:05:43;60.00;;;19.55;;
76593;SDS011;65482;50.240;14.302;2023-12-04T11:08:11;60.38;;;20.33;;
76593;SDS011;65482;50.240;14.302;2023-12-04T11:10:48;58.42;;;19.63;;
76593;SDS011;65482;50.240;14.302;2023-12-04T11:13:21;52.25;;;18.20;;
76593;SDS011;65482;50.240;14.302;2023-12-04T11:15:49;53.95;;;19.15;;
76593;SDS011;65482;50.240;14.302;2023-12-04T11:18:18;59.00;;;18.75;;
76593;SDS011;65482;50.240;14.302;2023-12-04T11:20:51;55.00;;;18.05;;
76593;SDS011;65482;50.240;14.302;2023-12-04T11:23:23;51.97;;;17.83;;
76593;SDS011;65482;50.240;14.302;2023-12-04T11:25:49;55.72;;;20.08;;
76593;SDS011;65482;50.240;14.302;2023-12-04T11:28:15;58.15;;;19.05;;
76593;SDS011;65482;50.240;14.302;2023-12-04T11:30:42;54.85;;;21.20;;
76593;SDS011;65482;50.240;14.302;2023-12-04T11:33:09;60.50;;;20.88;;
76593;SDS011;65482;50.240;14.302;2023-12-04T11:35:37;66.28;;;21.92;;
76593;SDS011;65482;50.240;14.302;2023-12-04T11:38:04;55.10;;;20.95;;
76593;SDS011;65482;50.240;14.302;2023-12-04T11:40:30;59.90;;;21.40;;
76593;SDS011;65482;50.240;14.302;2023-12-04T11:42:56;64.13;;;22.88;;
76593;SDS011;65482;50.240;14.302;2023-12-04T11:45:22;70.53;;;22.30;;
76593;SDS011;65482;50.240;14.302;2023-12-04T11:50:20;56.53;;;20.90;;
76593;SDS011;65482;50.240;14.302;2023-12-04T11:52:46;62.72;;;22.75;;
76593;SDS011;65482;50.240;14.302;2023-12-04T11:55:20;58.45;;;21.08;;
76593;SDS011;65482;50.240;14.302;2023-12-04T11:57:47;61.80;;;22.08;;
76593;SDS011;65482;50.240;14.302;2023-12-04T12:05:17;44.70;;;17.30;;
76593;SDS011;65482;50.240;14.302;2023-12-04T12:07:43;39.13;;;17.30;;
76593;SDS011;65482;50.240;14.302;2023-12-04T12:10:09;34.85;;;14.68;;
76593;SDS011;65482;50.240;14.302;2023-12-04T12:12:36;34.88;;;14.52;;
76593;SDS011;65482;50.240;14.302;2023-12-04T12:15:02;32.80;;;13.82;;
76593;SDS011;65482;50.240;14.302;2023-12-04T12:17:27;30.33;;;13.93;;
76593;SDS011;65482;50.240;14.302;2023-12-04T12:19:54;36.25;;;15.02;;
76593;SDS011;65482;50.240;14.302;2023-12-04T12:22:22;51.35;;;20.35;;
76593;SDS011;65482;50.240;14.302;2023-12-04T12:24:48;55.33;;;21.23;;
76593;SDS011;65482;50.240;14.302;2023-12-04T12:27:15;53.67;;;20.77;;
76593;SDS011;65482;50.240;14.302;2023-12-04T12:29:41;56.15;;;22.10;;
76593;SDS011;65482;50.240;14.302;2023-12-04T12:32:06;56.90;;;20.40;;
76593;SDS011;65482;50.240;14.302;2023-12-04T12:34:32;66.18;;;20.80;;
76593;SDS011;65482;50.240;14.302;2023-12-04T12:37:01;49.30;;;19.00;;
76593;SDS011;65482;50.240;14.302;2023-12-04T12:39:29;60.38;;;21.15;;
76593;SDS011;65482;50.240;14.302;2023-12-04T12:41:55;53.83;;;20.05;;
76593;SDS011;65482;50.240;14.302;2023-12-04T12:44:21;61.47;;;20.65;;
76593;SDS011;65482;50.240;14.302;2023-12-04T12:46:47;56.53;;;20.55;;
76593;SDS011;65482;50.240;14.302;2023-12-04T12:49:17;54.42;;;19.90;;
76593;SDS011;65482;50.240;14.302;2023-12-04T12:51:45;51.17;;;18.15;;
76593;SDS011;65482;50.240;14.302;2023-12-04T12:54:11;58.03;;;20.30;;
76593;SDS011;65482;50.240;14.302;2023-12-04T12:56:37;53.05;;;20.80;;
76593;SDS011;65482;50.240;14.302;2023-12-04T12:59:02;51.47;;;19.88;;
76593;SDS011;65482;50.240;14.302;2023-12-04T13:01:31;59.85;;;21.38;;
76593;SDS011;65482;50.240;14.302;2023-12-04T13:03:57;60.20;;;20.98;;
76593;SDS011;65482;50.240;14.302;2023-12-04T13:06:22;55.40;;;20.40;;
76593;SDS011;65482;50.240;14.302;2023-12-04T13:08:48;55.28;;;20.73;;
76593;SDS011;65482;50.240;14.302;2023-12-04T13:11:14;64.00;;;21.80;;
76593;SDS011;65482;50.240;14.302;2023-12-04T13:13:40;63.30;;;22.35;;
76593;SDS011;65482;50.240;14.302;2023-12-04T13:16:05;50.85;;;20.65;;
76593;SDS011;65482;50.240;14.302;2023-12-04T13:18:31;48.63;;;20.23;;
76593;SDS011;65482;50.240;14.302;2023-12-04T13:21:00;52.33;;;20.52;;
76593;SDS011;65482;50.240;14.302;2023-12-04T13:23:26;55.10;;;19.95;;
76593;SDS011;65482;50.240;14.302;2023-12-04T13:25:52;59.63;;;20.17;;
76593;SDS011;65482;50.240;14.302;2023-12-04T13:28:20;58.03;;;21.45;;
76593;SDS011;65482;50.240;14.302;2023-12-04T13:30:45;62.47;;;21.52;;
76593;SDS011;65482;50.240;14.302;2023-12-04T13:33:11;63.58;;;22.70;;
76593;SDS011;65482;50.240;14.302;2023-12-04T13:35:37;59.03;;;22.50;;
76593;SDS011;65482;50.240;14.302;2023-12-04T13:38:02;61.08;;;21.40;;
76593;SDS011;65482;50.240;14.302;2023-12-04T13:40:28;65.70;;;23.50;;
76593;SDS011;65482;50.240;14.302;2023-12-04T13:42:57;55.80;;;22.25;;
76593;SDS011;65482;50.240;14.302;2023-12-04T13:45:41;62.35;;;23.88;;
76593;SDS011;65482;50.240;14.302;2023-12-04T13:48:07;63.30;;;25.73;;
76593;SDS011;65482;50.240;14.302;2023-12-04T13:50:32;80.57;;;25.08;;
76593;SDS011;65482;50.240;14.302;2023-12-04T13:52:58;73.55;;;24.80;;
76593;SDS011;65482;50.240;14.302;2023-12-04T13:55:24;65.82;;;22.85;;
76593;SDS011;65482;50.240;14.302;2023-12-04T13:58:10;61.83;;;24.50;;
76593;SDS011;65482;50.240;14.302;2023-12-04T14:00:50;59.05;;;23.30;;
76593;SDS011;65482;50.240;14.302;2023-12-04T14:03:16;69.32;;;24.75;;
76593;SDS011;65482;50.240;14.302;2023-12-04T14:05:42;70.68;;;24.67;;
76593;SDS011;65482;50.240;14.302;2023-12-04T14:08:08;63.80;;;23.25;;
76593;SDS011;65482;50.240;14.302;2023-12-04T14:10:36;68.10;;;25.70;;
76593;SDS011;65482;50.240;14.302;2023-12-04T14:13:02;70.22;;;24.10;;
76593;SDS011;65482;50.240;14.302;2023-12-04T14:15:27;70.93;;;25.38;;
76593;SDS011;65482;50.240;14.302;2023-12-04T14:17:53;78.38;;;26.52;;
76593;SDS011;65482;50.240;14.302;2023-12-04T14:20:18;76.13;;;28.17;;
76593;SDS011;65482;50.240;14.302;2023-12-04T14:22:46;74.03;;;27.55;;
76593;SDS011;65482;50.240;14.302;2023-12-04T14:25:12;62.28;;;24.08;;
76593;SDS011;65482;50.240;14.302;2023-12-04T14:27:37;66.22;;;25.50;;
76593;SDS011;65482;50.240;14.302;2023-12-04T14:30:08;67.28;;;25.42;;
76593;SDS011;65482;50.240;14.302;2023-12-04T14:32:35;64.32;;;24.60;;
76593;SDS011;65482;50.240;14.302;2023-12-04T14:35:04;70.35;;;24.13;;
76593;SDS011;65482;50.240;14.302;2023-12-04T14:37:30;64.47;;;23.75;;
76593;SDS011;65482;50.240;14.302;2023-12-04T14:39:55;52.25;;;22.40;;
76593;SDS011;65482;50.240;14.302;2023-12-04T14:42:21;57.58;;;22.10;;
76593;SDS011;65482;50.240;14.302;2023-12-04T14:44:46;56.58;;;21.90;;
76593;SDS011;65482;50.240;14.302;2023-12-04T14:47:12;55.95;;;21.17;;
76593;SDS011;65482;50.240;14.302;2023-12-04T14:49:40;59.22;;;21.98;;
76593;SDS011;65482;50.240;14.302;2023-12-04T14:52:06;60.28;;;22.65;;
76593;SDS011;65482;50.240;14.302;2023-12-04T14:54:33;55.50;;;21.40;;
76593;SDS011;65482;50.240;14.302;2023-12-04T14:57:14;66.18;;;23.15;;
76593;SDS011;65482;50.240;14.302;2023-12-04T14:59:58;64.97;;;22.70;;
76593;SDS011;65482;50.240;14.302;2023-12-04T15:02:42;60.78;;;23.75;;
76593;SDS011;65482;50.240;14.302;2023-12-04T15:05:26;60.47;;;23.48;;